Time;durP1;ratioP1;P1;durP2;ratioP2;P2;SDS_P1;SDS_P2;PMS_P1;PMS_P2;Temp;Humidity;BMP_temperature;BMP_pressure;BME280_temperature;BME280_humidity;BME280_pressure;Samples;Min_cycle;Max_cycle;Signal;HPM_P1;HPM_P2
2021/01/17 00:00:38;;;;;;;8.73;3.53;;;;;;;14.80;65.24;100466.34;5046058;28;20045;-65
2021/01/17 00:03:04;;;;;;;10.07;3.88;;;;;;;14.73;65.28;100473.47;5029614;28;20103;-66
2021/01/17 00:05:29;;;;;;;8.10;1.20;;;;;;;14.66;65.45;100472.63;5031292;28;20048;-65
2021/01/17 00:07:55;;;;;;;7.82;2.67;;;;;;;14.66;65.49;100477.94;5029792;28;20069;-66
2021/01/17 00:10:20;;;;;;;6.63;2.42;;;;;;;14.68;65.50;100472.63;5029970;28;20061;-66
2021/01/17 00:12:45;;;;;;;3.38;1.80;;;;;;;14.72;65.64;100477.00;5029885;28;20463;-66
2021/01/17 00:15:11;;;;;;;5.25;1.65;;;;;;;14.73;65.78;100470.81;5027532;28;20041;-65
2021/01/17 00:17:36;;;;;;;4.88;2.00;;;;;;;14.75;65.89;100480.56;5029742;28;20042;-65
2021/01/17 00:20:01;;;;;;;21.60;3.55;;;;;;;14.77;65.41;100488.50;5030518;28;20056;-66
2021/01/17 00:22:27;;;;;;;6.75;2.75;;;;;;;14.73;65.69;100487.63;5030563;28;20042;-66
2021/01/17 00:24:52;;;;;;;5.80;3.10;;;;;;;14.73;65.33;100486.75;5030179;28;20042;-66
2021/01/17 00:27:18;;;;;;;4.00;1.00;;;;;;;14.73;65.49;100492.06;5039553;28;20402;-66
2021/01/17 00:29:43;;;;;;;12.05;4.35;;;;;;;14.70;65.45;100490.28;5028660;28;20069;-66
2021/01/17 00:32:09;;;;;;;11.80;4.28;;;;;;;14.73;65.86;100492.06;5027491;28;20064;-66
2021/01/17 00:34:34;;;;;;;6.03;2.97;;;;;;;14.73;65.54;100490.28;5027565;28;20049;-66
2021/01/17 00:36:59;;;;;;;16.45;3.70;;;;;;;14.71;65.65;100493.84;5028902;28;20046;-68
2021/01/17 00:39:25;;;;;;;15.25;6.78;;;;;;;14.71;65.62;100502.69;5029437;28;20438;-66
2021/01/17 00:41:50;;;;;;;4.28;1.25;;;;;;;14.67;65.89;100492.09;5030795;28;20033;-65
2021/01/17 00:44:16;;;;;;;6.88;2.10;;;;;;;14.53;65.54;100500.13;5029818;28;20313;-66
2021/01/17 00:46:41;;;;;;;5.28;3.00;;;;;;;14.49;65.50;100500.19;5029909;28;20036;-66
2021/01/17 00:49:06;;;;;;;9.55;2.70;;;;;;;14.43;65.87;100498.44;5030095;28;20111;-66
2021/01/17 00:51:32;;;;;;;4.10;2.00;;;;;;;14.45;65.72;100496.63;5028608;28;20056;-66
2021/01/17 00:53:57;;;;;;;5.45;1.58;;;;;;;14.47;66.17;100507.25;5029527;28;20073;-67
2021/01/17 00:56:22;;;;;;;9.77;1.60;;;;;;;14.50;65.99;100497.53;5030191;28;20049;-66
2021/01/17 00:58:48;;;;;;;4.60;1.67;;;;;;;14.52;66.00;100501.03;5040109;28;20091;-66
2021/01/17 01:01:13;;;;;;;7.70;1.48;;;;;;;14.54;66.07;100496.59;5029169;28;20044;-66
2021/01/17 01:03:38;;;;;;;5.93;1.58;;;;;;;14.57;66.02;100503.69;5028207;28;20053;-65
2021/01/17 01:06:04;;;;;;;6.72;1.65;;;;;;;14.60;66.01;100507.19;5044728;28;20422;-66
2021/01/17 01:08:29;;;;;;;5.03;1.50;;;;;;;14.64;65.76;100513.34;5030087;28;20102;-65
2021/01/17 01:10:55;;;;;;;6.22;1.38;;;;;;;14.66;65.92;100514.25;5029689;28;20111;-65
2021/01/17 01:13:20;;;;;;;5.25;2.20;;;;;;;14.65;65.81;100504.50;5029419;28;20046;-65
2021/01/17 01:15:45;;;;;;;7.30;3.60;;;;;;;14.64;65.86;100498.31;5029706;28;20405;-66
2021/01/17 01:18:11;;;;;;;4.28;2.13;;;;;;;14.66;65.87;100504.50;5045350;28;20060;-66
2021/01/17 01:20:36;;;;;;;3.38;1.20;;;;;;;14.67;65.71;100502.72;5030352;28;20042;-66
2021/01/17 01:23:01;;;;;;;5.13;1.10;;;;;;;14.68;66.07;100509.81;5044364;28;20502;-66
2021/01/17 01:25:27;;;;;;;8.45;1.38;;;;;;;14.68;66.02;100525.75;5029633;28;20054;-66
2021/01/17 01:27:52;;;;;;;8.95;2.55;;;;;;;14.62;66.27;100526.69;5027718;28;20064;-66
2021/01/17 01:30:17;;;;;;;6.05;3.47;;;;;;;14.50;66.07;100525.84;5029192;28;20414;-66
2021/01/17 01:32:43;;;;;;;6.18;3.08;;;;;;;14.33;66.01;100517.91;5029415;28;20049;-66
2021/01/17 01:35:08;;;;;;;9.13;2.50;;;;;;;14.25;65.95;100517.91;5028268;28;20061;-66
2021/01/17 01:37:34;;;;;;;8.25;2.80;;;;;;;14.20;66.01;100511.75;5029793;28;20045;-66
2021/01/17 01:39:59;;;;;;;12.15;4.97;;;;;;;14.20;66.05;100501.13;5027839;28;20075;-66
2021/01/17 01:42:24;;;;;;;9.82;2.90;;;;;;;14.22;66.21;100512.63;5029535;28;20041;-66
2021/01/17 01:44:50;;;;;;;6.80;2.50;;;;;;;14.24;65.94;100505.53;5030100;28;20087;-66
2021/01/17 01:47:15;;;;;;;6.10;2.25;;;;;;;14.24;66.06;100504.69;5028390;28;20038;-66
2021/01/17 01:49:40;;;;;;;4.95;1.85;;;;;;;14.24;66.59;100507.34;5041670;28;20042;-66
2021/01/17 01:52:06;;;;;;;14.20;2.55;;;;;;;14.25;65.88;100507.28;5029393;28;20431;-66
2021/01/17 01:54:31;;;;;;;8.45;2.30;;;;;;;14.26;66.46;100494.91;5015105;28;20048;-66
2021/01/17 01:56:56;;;;;;;9.23;2.00;;;;;;;14.26;66.16;100495.78;5009411;28;20441;-66
2021/01/17 01:59:22;;;;;;;6.53;1.85;;;;;;;14.27;66.42;100497.56;5008328;28;20050;-66
2021/01/17 02:01:47;;;;;;;4.22;1.63;;;;;;;14.29;66.23;100492.25;5009274;28;20038;-66
2021/01/17 02:04:12;;;;;;;3.20;1.60;;;;;;;14.27;66.18;100496.69;5009563;28;20499;-66
2021/01/17 02:06:38;;;;;;;6.25;1.48;;;;;;;14.24;66.48;100496.72;5045133;28;20072;-66
2021/01/17 02:09:03;;;;;;;5.25;1.42;;;;;;;14.22;66.30;100502.00;5012036;28;20046;-66
2021/01/17 02:11:28;;;;;;;14.27;1.63;;;;;;;14.21;66.10;100502.00;5009854;28;20034;-65
2021/01/17 02:13:54;;;;;;;6.45;1.60;;;;;;;14.22;66.14;100504.69;5008960;28;20045;-66
2021/01/17 02:16:19;;;;;;;9.25;6.32;;;;;;;14.23;66.41;100510.88;5009056;28;20042;-66
2021/01/17 02:18:45;;;;;;;13.18;5.68;;;;;;;14.22;66.19;100512.63;5008089;28;20096;-66
2021/01/17 02:21:10;;;;;;;10.10;4.57;;;;;;;14.20;66.20;100513.53;5008076;28;20049;-65
2021/01/17 02:23:36;;;;;;;13.95;6.45;;;;;;;14.18;66.19;100507.31;5009766;28;20052;-66
2021/01/17 02:26:01;;;;;;;8.70;3.40;;;;;;;14.16;66.30;100515.31;5008914;28;20399;-66
2021/01/17 02:28:26;;;;;;;9.75;3.40;;;;;;;14.13;66.19;100510.00;5009658;28;20121;-66
2021/01/17 02:30:52;;;;;;;7.47;2.83;;;;;;;14.11;66.35;100516.22;5009665;28;20038;-66
2021/01/17 02:33:17;;;;;;;16.13;3.88;;;;;;;14.11;65.92;100521.53;5007586;28;20042;-66
2021/01/17 02:35:43;;;;;;;8.75;2.63;;;;;;;14.10;66.26;100519.75;5008002;28;20049;-66
2021/01/17 02:38:08;;;;;;;5.50;1.35;;;;;;;14.09;65.95;100517.97;5008914;28;20292;-66
2021/01/17 02:40:33;;;;;;;8.02;2.47;;;;;;;14.08;65.98;100526.84;5010775;28;20557;-66
2021/01/17 02:42:59;;;;;;;7.60;1.00;;;;;;;14.06;66.48;100520.63;5012923;28;20532;-66
2021/01/17 02:45:24;;;;;;;4.72;0.82;;;;;;;14.02;66.05;100522.44;5013334;28;20124;-66
2021/01/17 02:47:49;;;;;;;9.80;1.10;;;;;;;13.98;66.02;100513.56;5013077;28;20066;-65
2021/01/17 02:50:15;;;;;;;9.80;3.22;;;;;;;14.00;66.20;100510.91;5013603;28;20046;-66
2021/01/17 02:52:40;;;;;;;8.27;2.85;;;;;;;14.01;65.89;100502.06;5039692;28;20406;-66
2021/01/17 02:55:05;;;;;;;12.82;3.80;;;;;;;14.04;66.19;100510.03;5032637;28;20034;-66
2021/01/17 02:57:31;;;;;;;14.45;4.28;;;;;;;14.06;66.09;100513.56;5019906;28;20495;-66
2021/01/17 02:59:56;;;;;;;8.93;3.78;;;;;;;14.05;65.90;100501.16;5012311;28;20037;-66
2021/01/17 03:02:21;;;;;;;35.50;11.48;;;;;;;14.02;65.82;100506.50;5023023;28;20041;-66
2021/01/17 03:04:47;;;;;;;23.85;6.18;;;;;;;14.02;65.51;100519.78;5032492;28;20044;-66
2021/01/17 03:07:12;;;;;;;15.48;7.00;;;;;;;14.04;65.81;100527.75;5032373;28;20760;-66
2021/01/17 03:09:37;;;;;;;15.75;4.93;;;;;;;14.03;65.65;100532.16;5032488;28;20040;-66
2021/01/17 03:12:03;;;;;;;4.03;1.35;;;;;;;13.97;65.71;100524.22;5031265;28;20576;-66
2021/01/17 03:14:28;;;;;;;17.80;2.63;;;;;;;13.91;65.72;100518.91;5032122;28;20402;-65
2021/01/17 03:16:53;;;;;;;7.85;0.77;;;;;;;13.89;65.58;100512.72;5032233;28;20490;-66
2021/01/17 03:19:19;;;;;;;3.88;1.00;;;;;;;13.88;65.62;100532.19;5031874;28;20134;-66
2021/01/17 03:21:44;;;;;;;6.68;1.40;;;;;;;13.87;65.48;100531.28;5045583;28;20037;-66
2021/01/17 03:24:09;;;;;;;4.05;1.10;;;;;;;13.84;65.75;100525.13;5047013;28;20521;-66
2021/01/17 03:26:35;;;;;;;6.47;2.53;;;;;;;13.77;65.60;100534.84;5031567;28;20071;-66
2021/01/17 03:29:00;;;;;;;15.90;2.08;;;;;;;13.71;65.94;100536.63;5031883;28;20033;-66
2021/01/17 03:31:26;;;;;;;12.07;3.30;;;;;;;13.69;65.56;100538.41;5030654;28;20030;-66
2021/01/17 03:33:51;;;;;;;18.98;5.82;;;;;;;13.69;65.85;100546.34;5031785;28;20030;-66
2021/01/17 03:36:16;;;;;;;13.77;3.67;;;;;;;13.70;65.94;100548.13;5029974;28;20055;-66
2021/01/17 03:38:42;;;;;;;6.03;1.35;;;;;;;13.70;65.96;100553.44;5043752;28;20128;-66
2021/01/17 03:41:07;;;;;;;7.97;1.50;;;;;;;13.72;65.62;100559.63;5020309;28;20628;-66
2021/01/17 03:43:32;;;;;;;5.03;0.50;;;;;;;13.73;65.84;100558.72;5010574;28;20132;-65
2021/01/17 03:45:58;;;;;;;9.05;0.60;;;;;;;13.72;66.08;100562.28;5011218;28;20726;-67
2021/01/17 03:48:23;;;;;;;6.00;0.68;;;;;;;13.72;65.84;100567.59;5011270;28;20034;-66
2021/01/17 03:50:48;;;;;;;5.15;0.70;;;;;;;13.69;65.82;100559.63;5011819;28;20038;-65
2021/01/17 03:53:14;;;;;;;2.83;0.80;;;;;;;13.66;65.81;100565.78;5009709;28;20045;-66
2021/01/17 03:55:39;;;;;;;9.77;1.00;;;;;;;13.63;65.45;100556.97;5023974;28;20445;-66
2021/01/17 03:58:04;;;;;;;8.65;1.17;;;;;;;13.61;65.35;100559.63;5029863;28;20482;-65
2021/01/17 04:00:30;;;;;;;5.13;0.90;;;;;;;13.55;65.38;100559.63;5010217;28;20088;-65
2021/01/17 04:02:55;;;;;;;9.13;0.80;;;;;;;13.50;65.40;100564.03;5055354;28;20050;-65
2021/01/17 04:05:20;;;;;;;13.73;2.90;;;;;;;13.46;64.97;100557.84;5029058;28;20038;-65
2021/01/17 04:07:46;;;;;;;15.05;1.73;;;;;;;13.47;65.69;100559.59;5034499;28;20510;-66
2021/01/17 04:10:11;;;;;;;6.20;1.50;;;;;;;13.51;65.33;100564.06;5028164;28;20442;-66
2021/01/17 04:12:36;;;;;;;11.68;1.30;;;;;;;13.54;65.17;100572.00;5017422;28;20038;-66
2021/01/17 04:15:02;;;;;;;6.68;1.05;;;;;;;13.59;65.25;100571.13;5009039;28;20459;-66
2021/01/17 04:17:27;;;;;;;6.60;1.08;;;;;;;13.63;65.86;100575.53;5010586;28;20072;-65
2021/01/17 04:19:53;;;;;;;11.68;2.35;;;;;;;13.64;65.40;100590.56;5011552;28;20446;-65
2021/01/17 04:22:18;;;;;;;8.07;2.78;;;;;;;13.62;65.46;100576.41;5009727;28;20049;-66
2021/01/17 04:24:43;;;;;;;10.05;2.45;;;;;;;13.57;65.44;100593.22;5010687;28;20049;-65
2021/01/17 04:27:09;;;;;;;9.48;3.25;;;;;;;13.56;65.50;100582.59;5010757;28;20038;-66
2021/01/17 04:29:34;;;;;;;9.05;2.17;;;;;;;13.57;65.33;100597.66;5010876;28;20046;-65
2021/01/17 04:31:59;;;;;;;15.43;5.32;;;;;;;13.56;65.51;100606.47;5010215;28;20091;-66
2021/01/17 04:34:25;;;;;;;21.48;7.13;;;;;;;13.46;65.46;100616.19;5010614;28;20038;-66
2021/01/17 04:36:50;;;;;;;7.63;1.73;;;;;;;13.34;65.65;100596.72;5011133;28;20038;-66
2021/01/17 04:39:15;;;;;;;14.38;1.80;;;;;;;13.28;65.81;100604.66;5053400;28;20040;-65
2021/01/17 04:41:41;;;;;;;16.83;3.42;;;;;;;13.23;65.68;100612.63;5017357;28;20107;-65
2021/01/17 04:44:06;;;;;;;13.68;2.83;;;;;;;13.25;65.67;100613.50;5027054;28;20042;-66
2021/01/17 04:46:32;;;;;;;6.80;1.10;;;;;;;13.25;65.94;100621.47;5014649;28;20045;-65
2021/01/17 04:48:57;;;;;;;16.70;2.03;;;;;;;13.28;65.95;100620.56;5044169;28;20037;-65
2021/01/17 04:51:22;;;;;;;14.60;0.85;;;;;;;13.25;65.82;100636.47;5009436;28;20045;-66
2021/01/17 04:53:48;;;;;;;6.28;0.90;;;;;;;13.18;66.09;100635.56;5010655;28;20400;-66
2021/01/17 04:56:13;;;;;;;11.80;3.38;;;;;;;13.12;65.07;100655.00;5010269;28;20046;-66
2021/01/17 04:58:38;;;;;;;11.48;2.42;;;;;;;13.11;65.90;100666.44;5009432;28;20034;-66
2021/01/17 05:01:04;;;;;;;12.57;4.55;;;;;;;13.09;66.03;100670.84;5016900;28;20039;-65
2021/01/17 05:03:29;;;;;;;5.80;3.78;;;;;;;13.08;65.99;100665.53;5008105;28;20517;-65
2021/01/17 05:05:54;;;;;;;12.35;2.88;;;;;;;13.07;66.21;100672.59;5010163;28;20030;-65
2021/01/17 05:08:20;;;;;;;7.22;1.30;;;;;;;13.08;65.83;100670.81;5008612;28;20053;-66
2021/01/17 05:10:45;;;;;;;11.55;2.10;;;;;;;13.07;66.20;100677.00;5010391;28;20038;-66
2021/01/17 05:13:10;;;;;;;9.10;1.20;;;;;;;13.03;66.11;100677.88;5009758;28;20131;-66
2021/01/17 05:15:36;;;;;;;6.70;1.77;;;;;;;12.97;65.93;100677.84;5010178;28;20050;-65
2021/01/17 05:18:01;;;;;;;9.90;2.15;;;;;;;12.92;65.97;100687.56;5016362;28;20719;-66
2021/01/17 05:20:27;;;;;;;10.25;4.30;;;;;;;12.89;65.84;100690.19;5028752;28;20036;-66
2021/01/17 05:22:52;;;;;;;5.20;2.00;;;;;;;12.86;65.56;100683.13;5028725;28;20049;-66
2021/01/17 05:25:17;;;;;;;13.70;3.22;;;;;;;12.84;65.58;100697.22;5028420;28;20052;-66
2021/01/17 05:27:43;;;;;;;11.93;2.13;;;;;;;12.83;65.87;100685.75;5029356;28;20038;-65
2021/01/17 05:30:08;;;;;;;16.73;3.58;;;;;;;12.84;65.66;100689.28;5026171;28;20046;-65
2021/01/17 05:32:33;;;;;;;6.30;1.30;;;;;;;12.86;65.32;100693.72;5029692;28;20037;-66
2021/01/17 05:34:59;;;;;;;3.88;1.30;;;;;;;12.91;65.75;100693.72;5029425;28;20045;-66
2021/01/17 05:37:24;;;;;;;4.22;0.90;;;;;;;12.93;65.51;100686.69;5028521;28;20041;-66
2021/01/17 05:39:49;;;;;;;9.77;1.20;;;;;;;12.94;65.95;100685.78;5029256;28;20033;-67
2021/01/17 05:42:15;;;;;;;5.40;1.00;;;;;;;12.96;65.29;100687.56;5029606;28;20033;-66
2021/01/17 05:44:40;;;;;;;7.45;0.80;;;;;;;12.98;65.24;100692.88;5030192;28;20084;-65
2021/01/17 05:47:06;;;;;;;7.70;0.82;;;;;;;12.98;65.71;100680.53;5040929;28;20048;-66
2021/01/17 05:49:31;;;;;;;4.15;1.08;;;;;;;13.02;65.32;100686.72;5045312;28;20060;-65
2021/01/17 05:51:56;;;;;;;2.10;0.65;;;;;;;13.04;65.56;100684.97;5029564;28;20061;-66
2021/01/17 05:54:22;;;;;;;3.35;0.55;;;;;;;13.05;65.61;100686.75;5028255;28;20041;-66
2021/01/17 05:56:47;;;;;;;3.53;1.00;;;;;;;13.08;65.51;100681.44;5030175;28;20120;-66
2021/01/17 05:59:12;;;;;;;6.95;1.17;;;;;;;13.10;65.75;100682.34;5028018;28;20040;-66
2021/01/17 06:01:38;;;;;;;7.32;1.10;;;;;;;13.09;65.05;100689.41;5029084;28;20038;-65
2021/01/17 06:04:03;;;;;;;5.85;1.90;;;;;;;13.11;65.71;100686.75;5042494;28;20551;-66
2021/01/17 06:06:29;;;;;;;6.22;2.97;;;;;;;13.11;65.32;100684.09;5029105;28;20042;-65
2021/01/17 06:08:54;;;;;;;7.47;3.15;;;;;;;13.12;65.14;100700.06;5028318;28;20088;-66
2021/01/17 06:11:20;;;;;;;5.85;2.80;;;;;;;13.16;65.32;100703.59;5028111;28;20037;-66
2021/01/17 06:13:45;;;;;;;14.18;7.75;;;;;;;13.18;65.44;100688.59;5028103;28;20029;-66
2021/01/17 06:16:10;;;;;;;13.93;7.45;;;;;;;13.17;65.57;100689.47;5047839;28;20544;-66
2021/01/17 06:18:36;;;;;;;32.38;13.32;;;;;;;13.15;65.11;100709.75;5031270;28;20398;-66
2021/01/17 06:21:01;;;;;;;19.00;9.18;;;;;;;13.12;65.28;100705.34;5032635;28;20095;-66
2021/01/17 06:23:26;;;;;;;12.77;8.15;;;;;;;13.12;65.63;100697.41;5032142;28;20540;-66
2021/01/17 06:25:52;;;;;;;12.38;10.30;;;;;;;13.14;65.21;100702.69;5032063;28;20090;-66
2021/01/17 06:28:17;;;;;;;12.00;9.27;;;;;;;13.09;65.65;100704.41;5030867;28;20065;-66
2021/01/17 06:30:42;;;;;;;16.45;8.52;;;;;;;13.03;65.20;100714.97;5033323;28;20430;-65
2021/01/17 06:33:08;;;;;;;16.35;3.70;;;;;;;12.90;65.20;100740.53;5032329;28;20041;-66
2021/01/17 06:35:33;;;;;;;15.27;3.90;;;;;;;12.70;65.01;100758.94;5033098;28;20130;-65
2021/01/17 06:37:58;;;;;;;29.65;4.35;;;;;;;12.58;65.51;100769.47;5032022;28;20044;-67
2021/01/17 06:40:24;;;;;;;42.70;18.02;;;;;;;12.42;65.09;100772.84;5032914;28;20489;-65
2021/01/17 06:42:49;;;;;;;67.90;26.90;;;;;;;12.26;65.94;100770.97;5032460;28;20422;-66
2021/01/17 06:45:14;;;;;;;49.90;20.25;;;;;;;12.19;65.69;100775.31;5032629;28;20398;-65
2021/01/17 06:47:40;;;;;;;44.28;15.07;;;;;;;12.17;65.26;100773.50;5033257;28;20402;-66
2021/01/17 06:50:05;;;;;;;22.52;8.40;;;;;;;12.19;66.11;100780.59;5032504;28;20056;-66
2021/01/17 06:52:31;;;;;;;12.52;5.38;;;;;;;12.18;65.29;100780.59;5048457;28;20037;-66
2021/01/17 06:54:56;;;;;;;13.20;7.80;;;;;;;12.18;66.28;100784.13;5037231;28;20025;-66
2021/01/17 06:57:21;;;;;;;7.72;2.83;;;;;;;12.22;65.81;100787.66;5032252;28;20045;-66
2021/01/17 06:59:47;;;;;;;12.73;2.15;;;;;;;12.23;65.84;100787.69;5035884;28;20448;-65
2021/01/17 07:02:12;;;;;;;6.82;1.45;;;;;;;12.22;66.24;100788.56;5032005;28;20045;-65
2021/01/17 07:04:37;;;;;;;6.03;1.38;;;;;;;12.21;65.91;100797.38;5044820;28;20038;-66
2021/01/17 07:07:03;;;;;;;5.10;1.42;;;;;;;12.24;66.16;100804.47;5031691;28;20753;-68
2021/01/17 07:09:28;;;;;;;7.13;1.80;;;;;;;12.27;65.42;100812.44;5022891;28;20038;-65
2021/01/17 07:11:53;;;;;;;4.97;1.30;;;;;;;12.32;65.95;100813.38;5030373;28;20041;-66
2021/01/17 07:14:19;;;;;;;6.28;1.05;;;;;;;12.31;66.05;100808.94;5045801;28;20060;-61
2021/01/17 07:16:44;;;;;;;7.65;1.10;;;;;;;12.32;66.11;100829.25;5032224;28;20094;-66
2021/01/17 07:19:10;;;;;;;5.10;1.23;;;;;;;12.36;65.54;100836.34;5031757;28;20055;-66
2021/01/17 07:21:35;;;;;;;10.05;3.92;;;;;;;12.40;65.55;100847.84;5029913;28;20040;-66
2021/01/17 07:24:01;;;;;;;10.40;5.00;;;;;;;12.46;65.48;100851.44;5031917;28;20045;-67
2021/01/17 07:26:26;;;;;;;32.90;13.98;;;;;;;12.52;65.66;100840.03;5029193;28;20401;-66
2021/01/17 07:28:51;;;;;;;26.45;9.90;;;;;;;12.54;66.06;100839.13;5032085;28;20120;-66
2021/01/17 07:31:17;;;;;;;10.85;3.20;;;;;;;12.58;65.58;100838.31;5031481;28;20053;-66
2021/01/17 07:33:42;;;;;;;26.30;12.38;;;;;;;12.63;66.05;100835.69;5029544;28;20037;-66
2021/01/17 07:36:07;;;;;;;20.42;9.93;;;;;;;12.65;65.51;100853.38;5029463;28;20566;-66
2021/01/17 07:38:33;;;;;;;11.48;5.93;;;;;;;12.70;66.12;100849.00;5012481;28;20038;-66
2021/01/17 07:40:58;;;;;;;17.67;9.73;;;;;;;12.76;65.33;100846.41;5026760;28;20125;-66
2021/01/17 07:43:23;;;;;;;9.95;6.03;;;;;;;12.89;65.79;100843.84;5030885;28;20100;-66
2021/01/17 07:45:49;;;;;;;8.13;1.90;;;;;;;13.05;65.43;100836.03;5018621;28;20406;-66
2021/01/17 07:48:14;;;;;;;9.23;5.75;;;;;;;13.18;65.13;100837.03;5022659;28;20038;-66
2021/01/17 07:50:39;;;;;;;8.85;3.38;;;;;;;13.21;65.65;100844.97;5043551;28;20176;-66
2021/01/17 07:53:05;;;;;;;17.60;7.80;;;;;;;13.14;65.41;100861.72;5030989;28;20041;-67
2021/01/17 07:55:30;;;;;;;24.63;11.48;;;;;;;13.08;65.37;100851.03;5016537;28;20034;-66
2021/01/17 07:57:55;;;;;;;9.85;6.55;;;;;;;13.05;65.52;100867.84;5028685;28;20433;-66
2021/01/17 08:00:21;;;;;;;11.40;8.18;;;;;;;13.01;65.06;100883.69;5030879;28;20041;-66
2021/01/17 08:02:46;;;;;;;12.15;4.55;;;;;;;12.97;65.42;100885.44;5029235;28;20057;-66
2021/01/17 08:05:11;;;;;;;9.10;3.85;;;;;;;12.94;65.05;100880.09;5022337;28;20661;-66
2021/01/17 08:07:37;;;;;;;4.63;2.95;;;;;;;12.93;65.02;100886.25;5029952;28;20045;-66
2021/01/17 08:10:02;;;;;;;6.63;4.25;;;;;;;12.91;65.65;100889.78;5031241;28;20041;-67
2021/01/17 08:12:27;;;;;;;10.23;4.72;;;;;;;12.91;65.25;100897.75;5029804;28;20045;-66
2021/01/17 08:14:53;;;;;;;12.85;4.72;;;;;;;12.90;65.29;100903.91;5031448;28;20053;-66
2021/01/17 08:17:18;;;;;;;5.72;3.72;;;;;;;12.92;65.42;100892.47;5028116;28;20055;-66
2021/01/17 08:19:44;;;;;;;12.10;6.47;;;;;;;12.95;65.04;100892.47;5023258;28;20045;-66
2021/01/17 08:22:10;;;;;;;9.82;8.60;;;;;;;13.05;64.87;100888.16;5029203;28;20087;-67
2021/01/17 08:24:35;;;;;;;8.98;6.40;;;;;;;13.17;64.91;100890.91;5026954;28;20514;-67
2021/01/17 08:27:00;;;;;;;6.80;6.15;;;;;;;13.28;65.41;100878.59;5029351;28;20469;-67
2021/01/17 08:29:26;;;;;;;3.22;2.53;;;;;;;13.39;64.74;100890.16;5031134;28;20490;-66
2021/01/17 08:31:51;;;;;;;2.78;2.30;;;;;;;13.50;65.08;100874.31;5045448;28;20041;-66
2021/01/17 08:34:17;;;;;;;14.98;8.90;;;;;;;13.73;64.88;100863.81;5029235;28;20390;-66
2021/01/17 08:36:42;;;;;;;4.72;3.55;;;;;;;14.04;64.23;100878.09;5028535;28;20037;-65
2021/01/17 08:39:07;;;;;;;2.58;1.95;;;;;;;14.12;64.09;100871.03;5029832;28;20064;-65
2021/01/17 08:41:33;;;;;;;4.05;2.80;;;;;;;14.13;64.00;100886.97;5030388;28;20033;-63
2021/01/17 08:43:58;;;;;;;10.10;3.58;;;;;;;14.07;64.22;100896.69;5027698;28;20037;-67
2021/01/17 08:46:24;;;;;;;2.13;1.13;;;;;;;13.95;64.25;100913.44;5025927;28;20415;-66
2021/01/17 08:48:49;;;;;;;21.88;17.48;;;;;;;13.74;64.21;100916.88;5028508;28;20042;-65
2021/01/17 08:51:14;;;;;;;12.52;7.20;;;;;;;13.35;64.71;100943.16;5029834;28;20037;-67
2021/01/17 08:53:40;;;;;;;15.05;3.67;;;;;;;13.01;64.95;100963.19;5029744;28;20042;-67
2021/01/17 08:56:05;;;;;;;23.40;4.50;;;;;;;12.76;64.68;100989.44;5034080;28;20038;-68
2021/01/17 08:58:31;;;;;;;12.65;7.43;;;;;;;12.62;64.91;100987.53;5029884;28;20402;-67
2021/01/17 09:00:56;;;;;;;8.90;3.78;;;;;;;12.48;64.83;100973.22;5028745;28;20038;-67
2021/01/17 09:03:21;;;;;;;8.02;3.55;;;;;;;12.36;64.64;100968.69;5032659;28;20130;-68
2021/01/17 09:05:47;;;;;;;12.52;3.58;;;;;;;12.33;65.38;100969.56;5035142;28;20563;-67
2021/01/17 09:08:13;;;;;;;8.50;4.07;;;;;;;12.36;64.88;100971.34;5024850;28;20037;-67
2021/01/17 09:10:38;;;;;;;14.40;7.38;;;;;;;12.41;64.79;100964.34;5030562;28;20033;-68
2021/01/17 09:13:04;;;;;;;24.58;18.15;;;;;;;12.41;64.93;100961.69;5027920;28;20041;-68
2021/01/17 09:15:29;;;;;;;14.88;5.70;;;;;;;12.41;64.94;100950.22;5027282;28;20502;-66
2021/01/17 09:17:54;;;;;;;5.15;2.65;;;;;;;12.50;65.03;100930.03;5022240;28;20033;-66
2021/01/17 09:20:20;;;;;;;16.88;8.13;;;;;;;12.67;64.56;100915.19;5026133;28;20061;-69
2021/01/17 09:22:45;;;;;;;12.13;6.75;;;;;;;12.95;64.44;100904.81;5023851;28;20105;-66
2021/01/17 09:25:10;;;;;;;22.45;8.93;;;;;;;13.27;64.51;100905.09;5025163;28;20510;-66
2021/01/17 09:27:36;;;;;;;9.80;4.32;;;;;;;13.51;64.31;100899.97;5025298;28;20041;-66
2021/01/17 09:30:01;;;;;;;8.48;3.83;;;;;;;13.58;64.10;100912.41;5024740;28;20510;-67
2021/01/17 09:32:26;;;;;;;6.43;2.08;;;;;;;13.52;63.49;100901.75;5028250;28;20257;-67
2021/01/17 09:34:52;;;;;;;2.63;1.52;;;;;;;13.51;63.95;100900.88;5025634;28;20034;-67
2021/01/17 09:37:17;;;;;;;13.38;2.60;;;;;;;13.51;63.79;100898.22;5026288;28;20061;-67
2021/01/17 09:39:43;;;;;;;6.57;3.70;;;;;;;13.49;63.47;100907.91;5017301;28;20146;-67
2021/01/17 09:42:08;;;;;;;7.20;2.45;;;;;;;13.50;63.47;100892.88;5024150;28;20049;-67
2021/01/17 09:44:34;;;;;;;17.13;7.30;;;;;;;13.60;63.43;100897.34;5023735;28;20041;-67
2021/01/17 09:46:59;;;;;;;5.50;3.65;;;;;;;13.79;63.24;100903.63;5027632;28;20045;-70
2021/01/17 09:49:25;;;;;;;9.70;5.70;;;;;;;13.93;62.83;100893.97;5045824;28;20453;-68
2021/01/17 09:51:50;;;;;;;11.82;7.50;;;;;;;13.99;63.03;100891.34;5033248;28;20037;-68
2021/01/17 09:54:16;;;;;;;13.68;6.80;;;;;;;13.85;63.33;100896.59;5032838;28;20034;-68
2021/01/17 09:56:41;;;;;;;17.45;10.88;;;;;;;13.74;62.93;100895.66;5033594;28;20509;-67
2021/01/17 09:59:06;;;;;;;13.57;4.55;;;;;;;13.62;62.61;100885.00;5024362;28;20401;-67
2021/01/17 10:01:32;;;;;;;8.88;5.57;;;;;;;13.43;63.42;100889.31;5023058;28;20041;-67
2021/01/17 10:03:57;;;;;;;12.70;3.95;;;;;;;13.31;62.80;100888.34;5047281;28;20037;-64
2021/01/17 10:06:22;;;;;;;14.23;5.72;;;;;;;13.22;63.40;100888.28;5033360;28;20129;-69
2021/01/17 10:08:48;;;;;;;12.70;6.25;;;;;;;13.24;63.20;100892.72;5033626;28;20449;-68
2021/01/17 10:11:13;;;;;;;12.27;6.40;;;;;;;13.29;63.57;100898.06;5033467;28;20406;-68
2021/01/17 10:13:38;;;;;;;11.70;5.82;;;;;;;13.45;63.40;100884.91;5032556;28;20545;-64
2021/01/17 10:16:04;;;;;;;28.88;13.35;;;;;;;13.51;63.39;100892.91;5025732;28;20041;-66
2021/01/17 10:18:29;;;;;;;18.65;9.32;;;;;;;13.69;62.66;100877.94;5048573;28;20121;-67
2021/01/17 10:20:54;;;;;;;12.23;7.30;;;;;;;13.94;62.82;100883.38;5048864;28;20473;-68
2021/01/17 10:23:20;;;;;;;13.52;4.95;;;;;;;13.82;62.90;100891.28;5033845;28;20048;-67
2021/01/17 10:25:45;;;;;;;8.07;4.32;;;;;;;13.61;62.76;100899.13;5015248;28;20057;-66
2021/01/17 10:28:11;;;;;;;15.63;4.45;;;;;;;13.42;63.46;100899.91;5043547;28;20495;-67
2021/01/17 10:30:36;;;;;;;15.27;4.25;;;;;;;13.31;62.81;100917.53;5012255;28;20096;-63
2021/01/17 10:33:01;;;;;;;10.43;3.80;;;;;;;13.39;63.20;100921.97;5025434;28;20040;-68
2021/01/17 10:35:27;;;;;;;21.63;12.50;;;;;;;13.60;62.88;100923.00;5030664;28;20066;-69
2021/01/17 10:37:52;;;;;;;13.10;5.32;;;;;;;13.77;62.49;100924.00;5029622;28;20125;-68
2021/01/17 10:40:17;;;;;;;11.75;7.03;;;;;;;14.05;62.89;100909.94;5028152;28;20433;-66
2021/01/17 10:42:43;;;;;;;8.48;4.50;;;;;;;14.28;62.17;100916.22;5032549;28;20091;-67
2021/01/17 10:45:08;;;;;;;9.20;5.60;;;;;;;14.67;61.67;100902.16;5046405;28;20045;-67
2021/01/17 10:47:33;;;;;;;6.20;2.15;;;;;;;15.18;61.21;100897.72;5044184;28;20524;-66
2021/01/17 10:49:59;;;;;;;16.08;10.32;;;;;;;15.64;60.69;100893.25;5030524;28;20041;-64
2021/01/17 10:52:24;;;;;;;17.02;10.23;;;;;;;16.03;60.61;100891.31;5028126;28;20075;-66
2021/01/17 10:54:49;;;;;;;6.30;2.90;;;;;;;16.31;59.77;100874.31;5030973;28;20041;-66
2021/01/17 10:57:15;;;;;;;12.40;3.25;;;;;;;16.25;59.94;100885.88;5023376;28;20042;-65
2021/01/17 10:59:40;;;;;;;4.07;1.10;;;;;;;16.19;59.93;100885.91;5028138;28;20085;-65
2021/01/17 11:02:06;;;;;;;10.93;6.70;;;;;;;16.27;59.08;100892.09;5043680;28;20492;-64
2021/01/17 11:04:31;;;;;;;11.05;2.50;;;;;;;16.40;59.24;100884.91;5031012;28;20046;-64
2021/01/17 11:06:56;;;;;;;7.97;3.30;;;;;;;16.46;59.18;100876.88;5017370;28;20410;-64
2021/01/17 11:09:22;;;;;;;7.65;2.42;;;;;;;16.49;58.92;100874.19;5031724;28;20122;-64
2021/01/17 11:11:47;;;;;;;6.65;3.38;;;;;;;16.51;58.81;100861.72;5030508;28;20045;-62